createdAt,value
2018-01-18T00:00:53.677Z,2.70
2018-01-18T00:01:56.144Z,2.37
2018-01-18T00:02:58.608Z,1.77
2018-01-18T00:04:01.076Z,2.43
2018-01-18T00:05:03.575Z,2.77
2018-01-18T00:06:06.030Z,2.43
2018-01-18T00:07:08.500Z,2.60
2018-01-18T00:08:11.312Z,2.23
2018-01-18T00:09:13.762Z,2.20
2018-01-18T00:10:16.238Z,2.03
2018-01-18T00:11:18.701Z,3.00
2018-01-18T00:12:21.153Z,2.53
2018-01-18T00:13:23.623Z,2.87
2018-01-18T00:14:26.083Z,2.30
2018-01-18T00:15:28.574Z,2.07
2018-01-18T00:16:31.035Z,2.13
2018-01-18T00:17:33.508Z,2.00
2018-01-18T00:18:35.961Z,2.27
2018-01-18T00:19:38.428Z,2.20
2018-01-18T00:20:40.902Z,2.17
2018-01-18T00:21:43.368Z,1.90
2018-01-18T00:22:45.832Z,2.37
2018-01-18T00:23:48.286Z,2.10
2018-01-18T00:24:50.747Z,2.13
2018-01-18T00:25:53.234Z,2.27
2018-01-18T00:26:55.685Z,2.10
2018-01-18T00:27:58.148Z,2.37
2018-01-18T00:29:00.597Z,2.20
2018-01-18T00:30:03.049Z,1.90
2018-01-18T00:31:05.590Z,2.50
2018-01-18T00:32:08.056Z,2.43
2018-01-18T00:33:10.506Z,2.37
2018-01-18T00:34:12.962Z,2.37
2018-01-18T00:35:15.417Z,1.90
2018-01-18T00:36:17.894Z,1.97
2018-01-18T00:37:20.368Z,2.00
2018-01-18T00:38:22.844Z,2.57
2018-01-18T00:39:25.298Z,1.93
2018-01-18T00:40:27.760Z,2.13
2018-01-18T00:41:30.244Z,2.03
2018-01-18T00:42:32.699Z,1.70
2018-01-18T00:43:35.164Z,1.80
2018-01-18T00:44:37.628Z,1.80
2018-01-18T00:45:40.160Z,1.80
2018-01-18T00:46:42.648Z,1.93
2018-01-18T00:47:45.102Z,1.70
2018-01-18T00:48:47.554Z,2.20
2018-01-18T00:49:50.020Z,1.80
2018-01-18T00:50:52.488Z,2.20
2018-01-18T00:51:54.957Z,2.07
2018-01-18T00:52:57.420Z,1.87
2018-01-18T00:53:59.874Z,2.50
2018-01-18T00:55:02.332Z,2.53
2018-01-18T00:56:04.796Z,1.87
2018-01-18T00:57:07.272Z,1.97
2018-01-18T00:58:09.718Z,1.90
2018-01-18T00:59:12.169Z,2.03
2018-01-18T01:00:14.622Z,2.10
2018-01-18T01:01:17.087Z,1.80
2018-01-18T01:02:19.571Z,2.83
2018-01-18T01:03:22.022Z,1.90
2018-01-18T01:04:24.485Z,2.00
2018-01-18T01:05:26.934Z,1.67
2018-01-18T01:06:29.386Z,1.60
2018-01-18T01:07:31.876Z,1.73
2018-01-18T01:08:34.340Z,2.07
2018-01-18T01:09:36.828Z,1.87
2018-01-18T01:10:39.304Z,1.23
2018-01-18T01:11:41.776Z,1.83
2018-01-18T01:12:44.267Z,1.60
2018-01-18T01:13:46.766Z,1.90
2018-01-18T01:14:49.214Z,1.45
2018-01-18T01:15:51.720Z,1.87
2018-01-18T01:16:54.192Z,1.83
2018-01-18T01:17:56.661Z,1.93
2018-01-18T01:18:59.128Z,1.87
2018-01-18T01:20:01.578Z,1.90
2018-01-18T01:21:04.042Z,1.60
2018-01-18T01:22:06.500Z,2.10
2018-01-18T01:23:08.991Z,1.70
2018-01-18T01:24:11.456Z,1.60
2018-01-18T01:25:13.905Z,1.60
2018-01-18T01:26:16.349Z,1.20
2018-01-18T01:27:18.803Z,1.60
2018-01-18T01:28:21.278Z,1.50
2018-01-18T01:29:23.760Z,1.87
2018-01-18T01:30:26.229Z,1.83
2018-01-18T01:31:28.684Z,1.50
2018-01-18T01:32:31.138Z,1.87
2018-01-18T01:33:33.609Z,1.60
2018-01-18T01:34:36.081Z,1.37
2018-01-18T01:35:38.525Z,1.60
2018-01-18T01:36:40.973Z,1.73
2018-01-18T01:37:43.476Z,2.07
2018-01-18T01:38:45.955Z,1.83
2018-01-18T01:39:48.421Z,1.73
2018-01-18T01:40:50.888Z,1.77
2018-01-18T01:41:53.356Z,1.93
2018-01-18T01:42:55.806Z,1.90
2018-01-18T01:43:58.281Z,1.50
2018-01-18T01:45:00.745Z,2.33
2018-01-18T01:46:03.213Z,1.63
2018-01-18T01:47:05.667Z,1.63
2018-01-18T01:48:08.136Z,1.60
2018-01-18T01:49:10.609Z,2.13
2018-01-18T01:50:13.062Z,2.10
2018-01-18T01:51:15.528Z,1.83
2018-01-18T01:52:18.004Z,1.90
2018-01-18T01:53:20.469Z,2.22
2018-01-18T01:54:22.959Z,1.70
2018-01-18T01:55:25.417Z,2.20
2018-01-18T01:56:27.888Z,2.03
2018-01-18T01:57:30.356Z,2.40
2018-01-18T01:58:32.878Z,2.20
2018-01-18T01:59:35.344Z,1.77
2018-01-18T02:00:37.808Z,2.03
2018-01-18T02:01:40.273Z,1.83
2018-01-18T02:02:42.749Z,1.87
2018-01-18T02:03:45.218Z,2.05
2018-01-18T02:04:47.697Z,2.03
2018-01-18T02:05:50.154Z,2.13
2018-01-18T02:06:52.636Z,2.15
2018-01-18T02:07:55.108Z,2.10
2018-01-18T02:08:57.579Z,1.77
2018-01-18T02:10:00.087Z,2.30
2018-01-18T02:11:02.541Z,2.17
2018-01-18T02:12:05.049Z,2.10
2018-01-18T02:13:07.479Z,1.93
2018-01-18T02:14:09.952Z,2.17
2018-01-18T02:15:12.443Z,1.87
2018-01-18T02:16:14.916Z,1.92
2018-01-18T02:17:17.380Z,2.10
2018-01-18T02:18:19.860Z,1.77
2018-01-18T02:19:22.348Z,2.08
2018-01-18T02:20:24.830Z,2.10
2018-01-18T02:21:27.286Z,1.93
2018-01-18T02:22:29.743Z,2.20
2018-01-18T02:23:32.208Z,1.80
2018-01-18T02:24:34.676Z,2.43
2018-01-18T02:25:37.152Z,1.80
2018-01-18T02:26:39.613Z,2.07
2018-01-18T02:27:42.081Z,1.93
2018-01-18T02:28:44.559Z,1.40
2018-01-18T02:29:47.018Z,2.50
2018-01-18T02:30:49.503Z,2.10
2018-01-18T02:31:51.958Z,1.60
2018-01-18T02:32:54.410Z,1.60
2018-01-18T02:33:56.893Z,2.15
2018-01-18T02:34:59.364Z,1.77
2018-01-18T02:36:01.852Z,1.90
2018-01-18T02:37:04.325Z,2.37
2018-01-18T02:38:06.796Z,1.87
2018-01-18T02:39:09.266Z,1.93
2018-01-18T02:40:11.721Z,1.40
2018-01-18T02:41:14.204Z,1.93
2018-01-18T02:42:16.654Z,2.07
2018-01-18T02:43:19.124Z,2.17
2018-01-18T02:44:21.578Z,1.80
2018-01-18T02:45:24.032Z,1.70
2018-01-18T02:46:26.513Z,1.47
2018-01-18T02:47:28.987Z,1.80
2018-01-18T02:48:31.438Z,1.60
2018-01-18T02:49:33.889Z,1.60
2018-01-18T02:50:36.352Z,1.67
2018-01-18T02:51:38.840Z,1.67
2018-01-18T02:52:41.311Z,1.60
2018-01-18T02:53:43.776Z,2.47
2018-01-18T02:54:46.230Z,1.37
2018-01-18T02:55:48.683Z,1.63
2018-01-18T02:56:51.180Z,2.00
2018-01-18T02:57:53.644Z,1.60
2018-01-18T02:58:56.108Z,2.40
2018-01-18T02:59:58.572Z,1.53
2018-01-18T03:01:01.021Z,1.67
2018-01-18T03:02:03.513Z,1.60
2018-01-18T03:03:06.005Z,1.50
2018-01-18T03:04:08.503Z,1.70
2018-01-18T03:05:10.957Z,1.63
2018-01-18T03:06:13.457Z,2.03
2018-01-18T03:07:15.995Z,1.73
2018-01-18T03:08:18.455Z,1.70
2018-01-18T03:09:20.907Z,1.20
2018-01-18T03:10:23.365Z,1.98
2018-01-18T03:11:25.886Z,1.70
2018-01-18T03:12:28.366Z,1.77
2018-01-18T03:13:30.833Z,1.23
2018-01-18T03:14:33.311Z,1.80
2018-01-18T03:15:35.797Z,1.62
2018-01-18T03:16:38.260Z,1.20
2018-01-18T03:17:40.743Z,1.40
2018-01-18T03:18:43.207Z,1.70
2018-01-18T03:19:45.667Z,1.80
2018-01-18T03:20:48.129Z,1.80
2018-01-18T03:21:50.573Z,1.63
2018-01-18T03:22:53.042Z,1.80
2018-01-18T03:23:55.512Z,1.90
2018-01-18T03:24:57.971Z,1.70
2018-01-18T03:26:00.432Z,1.50
2018-01-18T03:27:02.899Z,1.70
2018-01-18T03:28:05.384Z,1.37
2018-01-18T03:29:07.850Z,1.63
2018-01-18T03:30:10.310Z,1.47
2018-01-18T03:31:12.787Z,1.33
2018-01-18T03:32:15.256Z,1.47
2018-01-18T03:33:17.724Z,1.60
2018-01-18T03:34:20.178Z,1.10
2018-01-18T03:35:22.644Z,1.40
2018-01-18T03:36:25.111Z,1.20
2018-01-18T03:37:27.557Z,1.53
2018-01-18T03:38:30.007Z,1.20
2018-01-18T03:39:32.480Z,1.73
2018-01-18T03:40:34.949Z,1.73
2018-01-18T03:41:37.416Z,1.40
2018-01-18T03:42:39.873Z,1.63
2018-01-18T03:43:42.335Z,1.92
2018-01-18T03:44:44.826Z,1.67
2018-01-18T03:45:47.278Z,1.57
2018-01-18T03:46:49.733Z,1.87
2018-01-18T03:47:52.211Z,1.63
2018-01-18T03:48:54.671Z,1.43
2018-01-18T03:49:57.121Z,1.40
2018-01-18T03:50:59.592Z,1.40
2018-01-18T03:52:02.069Z,1.50
2018-01-18T03:53:04.544Z,1.50
2018-01-18T03:54:07.024Z,1.30
2018-01-18T03:55:09.479Z,1.17
2018-01-18T03:56:11.929Z,1.30
2018-01-18T03:57:14.391Z,1.40
2018-01-18T03:58:16.837Z,1.47
2018-01-18T03:59:19.286Z,1.30
2018-01-18T04:00:21.760Z,1.40
2018-01-18T04:01:24.250Z,1.33
2018-01-18T04:02:26.728Z,1.40
2018-01-18T04:03:29.178Z,1.10
2018-01-18T04:04:31.640Z,1.40
2018-01-18T04:05:34.091Z,1.10
2018-01-18T04:06:36.542Z,1.60
2018-01-18T04:07:39.018Z,1.60
2018-01-18T04:08:41.470Z,1.20
2018-01-18T04:09:43.926Z,1.30
2018-01-18T04:10:46.392Z,1.23
2018-01-18T04:11:48.845Z,2.07
2018-01-18T04:12:51.293Z,1.30
2018-01-18T04:13:53.746Z,1.50
2018-01-18T04:14:56.198Z,1.30
2018-01-18T04:15:58.660Z,1.50
2018-01-18T04:17:01.110Z,1.40
2018-01-18T04:18:03.588Z,1.30
2018-01-18T04:19:06.038Z,1.20
2018-01-18T04:20:08.490Z,1.10
2018-01-18T04:21:10.951Z,1.50
2018-01-18T04:22:13.405Z,1.17
2018-01-18T04:23:15.865Z,1.10
2018-01-18T04:24:18.343Z,1.10
2018-01-18T04:25:20.798Z,1.30
2018-01-18T04:26:23.264Z,1.20
2018-01-18T04:27:25.719Z,1.37
2018-01-18T04:28:28.192Z,1.60
2018-01-18T04:29:30.642Z,2.30
2018-01-18T04:30:33.111Z,1.73
2018-01-18T04:31:35.558Z,1.30
2018-01-18T04:32:38.024Z,1.40
2018-01-18T04:33:40.473Z,1.27
2018-01-18T04:34:42.922Z,1.40
2018-01-18T04:35:45.392Z,1.70
2018-01-18T04:36:47.842Z,1.87
2018-01-18T04:37:50.303Z,1.23
2018-01-18T04:38:52.761Z,1.43
2018-01-18T04:39:55.236Z,2.20
2018-01-18T04:40:57.686Z,1.40
2018-01-18T04:42:00.137Z,1.23
2018-01-18T04:43:02.607Z,1.87
2018-01-18T04:44:05.072Z,1.37
2018-01-18T04:45:07.534Z,1.45
2018-01-18T04:46:10.002Z,1.70
2018-01-18T04:47:12.467Z,1.80
2018-01-18T04:48:14.922Z,1.63
2018-01-18T04:49:17.383Z,1.63
2018-01-18T04:50:19.842Z,1.70
2018-01-18T04:51:22.309Z,1.60
2018-01-18T04:52:24.770Z,1.45
2018-01-18T04:53:27.264Z,1.58
2018-01-18T04:54:29.761Z,1.33
2018-01-18T04:55:32.236Z,2.12
2018-01-18T04:56:34.694Z,2.00
2018-01-18T04:57:37.154Z,1.87
2018-01-18T04:58:39.637Z,1.60
2018-01-18T04:59:42.106Z,1.90
2018-01-18T05:00:44.586Z,1.48
2018-01-18T05:01:47.061Z,2.33
2018-01-18T05:02:49.564Z,1.40
2018-01-18T05:03:52.030Z,1.40
2018-01-18T05:04:54.527Z,2.67
2018-01-18T05:05:56.991Z,1.40
2018-01-18T05:06:59.446Z,2.13
2018-01-18T05:08:01.911Z,1.87
2018-01-18T05:09:04.374Z,1.50
2018-01-18T05:10:06.852Z,1.40
2018-01-18T05:11:09.328Z,2.13
2018-01-18T05:12:11.782Z,1.20
2018-01-18T05:13:14.239Z,1.20
2018-01-18T05:14:16.804Z,1.53
2018-01-18T05:15:19.284Z,1.60
2018-01-18T05:16:21.746Z,1.83
2018-01-18T05:17:24.198Z,1.53
2018-01-18T05:18:26.655Z,1.80
2018-01-18T05:19:29.116Z,1.83
2018-01-18T05:20:31.569Z,1.60
2018-01-18T05:21:34.111Z,1.80
2018-01-18T05:22:36.583Z,1.60
2018-01-18T05:23:39.034Z,1.43
2018-01-18T05:24:41.497Z,1.15
2018-01-18T05:25:43.976Z,1.95
2018-01-18T05:26:46.705Z,1.73
2018-01-18T05:27:49.268Z,1.77
2018-01-18T05:28:51.713Z,1.63
2018-01-18T05:29:54.176Z,1.60
2018-01-18T05:30:56.630Z,2.10
2018-01-18T05:31:59.142Z,1.50
2018-01-18T05:33:01.612Z,1.73
2018-01-18T05:34:04.217Z,1.67
2018-01-18T05:35:06.700Z,1.65
2018-01-18T05:36:09.221Z,1.77
2018-01-18T05:37:11.695Z,1.65
2018-01-18T05:38:14.168Z,1.90
2018-01-18T05:39:16.626Z,2.35
2018-01-18T05:40:19.097Z,1.67
2018-01-18T05:41:21.553Z,1.73
2018-01-18T05:42:24.005Z,2.07
2018-01-18T05:43:26.464Z,1.80
2018-01-18T05:44:28.930Z,1.52
2018-01-18T05:45:31.390Z,1.48
2018-01-18T05:46:33.842Z,1.80
2018-01-18T05:47:36.307Z,1.43
2018-01-18T05:48:38.762Z,1.60
2018-01-18T05:49:41.244Z,1.62
2018-01-18T05:50:43.726Z,1.50
2018-01-18T05:51:46.190Z,1.58
2018-01-18T05:52:48.675Z,1.45
2018-01-18T05:53:51.151Z,1.60
2018-01-18T05:54:53.678Z,1.90
2018-01-18T05:55:56.160Z,1.45
2018-01-18T05:56:58.640Z,1.30
2018-01-18T05:58:01.116Z,1.25
2018-01-18T05:59:03.609Z,1.80
2018-01-18T06:00:06.073Z,1.42
2018-01-18T06:01:08.553Z,1.35
2018-01-18T06:02:11.036Z,2.22
2018-01-18T06:03:13.512Z,1.37
2018-01-18T06:04:16.018Z,1.23
2018-01-18T06:05:18.496Z,1.48
2018-01-18T06:06:20.961Z,1.70
2018-01-18T06:07:23.441Z,1.65
2018-01-18T06:08:25.920Z,1.75
2018-01-18T06:09:28.377Z,1.40
2018-01-18T06:10:30.954Z,1.60
2018-01-18T06:11:33.440Z,1.30
2018-01-18T06:12:35.893Z,1.35
2018-01-18T06:13:38.397Z,1.10
2018-01-18T06:14:40.853Z,1.60
2018-01-18T06:15:43.332Z,1.50
2018-01-18T06:16:45.794Z,1.50
2018-01-18T06:17:48.282Z,1.42
2018-01-18T06:18:50.756Z,1.62
2018-01-18T06:19:53.216Z,1.10
2018-01-18T06:20:55.678Z,1.37
2018-01-18T06:21:58.164Z,1.30
2018-01-18T06:23:00.643Z,0.95
2018-01-18T06:24:03.135Z,1.45
2018-01-18T06:25:05.667Z,1.23
2018-01-18T06:26:08.136Z,1.33
2018-01-18T06:27:10.605Z,1.10
2018-01-18T06:28:13.088Z,1.27
2018-01-18T06:29:15.546Z,1.23
2018-01-18T06:30:18.052Z,1.80
2018-01-18T06:31:20.532Z,1.40
2018-01-18T06:32:23.011Z,1.30
2018-01-18T06:33:25.502Z,1.40
2018-01-18T06:34:27.991Z,1.98
2018-01-18T06:35:30.471Z,1.80
2018-01-18T06:36:32.964Z,1.57
2018-01-18T06:37:35.440Z,1.02
2018-01-18T06:38:37.906Z,1.50
2018-01-18T06:39:40.381Z,1.58
2018-01-18T06:40:42.866Z,1.40
2018-01-18T06:41:45.342Z,1.17
2018-01-18T06:42:47.808Z,1.27
2018-01-18T06:43:50.284Z,1.20
2018-01-18T06:44:52.756Z,1.10
2018-01-18T06:45:55.206Z,1.60
2018-01-18T06:46:57.670Z,1.10
2018-01-18T06:48:00.188Z,1.20
2018-01-18T06:49:02.653Z,1.70
2018-01-18T06:50:05.118Z,1.62
2018-01-18T06:51:07.591Z,0.90
2018-01-18T06:52:10.064Z,1.45
2018-01-18T06:53:12.514Z,1.63
2018-01-18T06:54:14.972Z,0.90
2018-01-18T06:55:17.439Z,1.10
2018-01-18T06:56:19.918Z,1.65
2018-01-18T06:57:22.392Z,1.40
2018-01-18T06:58:24.864Z,1.30
2018-01-18T06:59:27.330Z,0.95
2018-01-18T07:00:29.780Z,1.00
2018-01-18T07:01:32.271Z,1.25
2018-01-18T07:02:34.744Z,1.17
2018-01-18T07:03:37.244Z,1.27
2018-01-18T07:04:39.810Z,0.98
2018-01-18T07:05:42.308Z,0.88
2018-01-18T07:06:44.780Z,1.33
2018-01-18T07:07:47.256Z,1.05
2018-01-18T07:08:49.811Z,1.65
2018-01-18T07:09:52.288Z,0.90
2018-01-18T07:10:54.756Z,1.07
2018-01-18T07:11:57.232Z,1.20
2018-01-18T07:12:59.721Z,1.42
2018-01-18T07:14:02.204Z,1.10
2018-01-18T07:15:04.665Z,1.25
2018-01-18T07:16:07.130Z,1.23
2018-01-18T07:17:09.607Z,1.10
2018-01-18T07:18:12.070Z,0.95
2018-01-18T07:19:14.551Z,1.17
2018-01-18T07:20:17.031Z,0.98
2018-01-18T07:21:19.495Z,1.00
2018-01-18T07:22:22.070Z,0.85
2018-01-18T07:23:24.547Z,1.20
2018-01-18T07:24:27.018Z,1.10
2018-01-18T07:25:29.496Z,1.00
2018-01-18T07:26:31.996Z,1.30
2018-01-18T07:27:34.474Z,0.95
2018-01-18T07:28:36.936Z,0.90
2018-01-18T07:29:39.386Z,1.07
2018-01-18T07:30:41.870Z,1.23
2018-01-18T07:31:44.353Z,0.80
2018-01-18T07:32:46.840Z,1.00
2018-01-18T07:33:49.337Z,0.90
2018-01-18T07:34:51.820Z,0.93
2018-01-18T07:35:54.304Z,1.40
2018-01-18T07:36:56.807Z,0.90
2018-01-18T07:37:59.257Z,1.07
2018-01-18T07:39:01.720Z,1.10
2018-01-18T07:40:04.222Z,1.00
2018-01-18T07:41:06.696Z,1.30
2018-01-18T07:42:09.194Z,1.40
2018-01-18T07:43:11.738Z,0.95
2018-01-18T07:44:14.198Z,0.83
2018-01-18T07:45:16.662Z,0.70
2018-01-18T07:46:19.126Z,0.90
2018-01-18T07:47:21.624Z,0.97
2018-01-18T07:48:24.086Z,0.80
2018-01-18T07:49:26.546Z,0.90
2018-01-18T07:50:29.020Z,0.98
2018-01-18T07:51:31.492Z,0.90
2018-01-18T07:52:33.988Z,0.98
2018-01-18T07:53:36.445Z,1.00
2018-01-18T07:54:38.924Z,1.20
2018-01-18T07:55:41.390Z,1.02
2018-01-18T07:56:43.863Z,1.10
2018-01-18T07:57:46.360Z,0.98
2018-01-18T07:58:48.825Z,0.90
2018-01-18T07:59:51.302Z,0.90
2018-01-18T08:00:53.762Z,0.90
2018-01-18T08:01:56.226Z,0.80
2018-01-18T08:03:04.458Z,0.80
2018-01-18T08:04:12.468Z,0.90
2018-01-18T08:05:14.944Z,0.90
2018-01-18T08:06:17.406Z,1.00
2018-01-18T08:07:19.933Z,1.08
2018-01-18T08:08:22.446Z,0.70
2018-01-18T08:09:24.932Z,1.20
2018-01-18T08:10:27.408Z,1.00
2018-01-18T08:11:29.888Z,0.90
2018-01-18T08:12:32.423Z,0.80
2018-01-18T08:13:34.906Z,0.85
2018-01-18T08:14:37.372Z,0.98
2018-01-18T08:15:39.851Z,0.77
2018-01-18T08:16:42.318Z,0.70
2018-01-18T08:17:44.781Z,1.00
2018-01-18T08:18:47.275Z,0.70
2018-01-18T08:19:49.837Z,0.75
2018-01-18T08:20:52.332Z,0.80
2018-01-18T08:21:54.806Z,0.80
2018-01-18T08:22:57.296Z,0.80
2018-01-18T08:23:59.779Z,1.10
2018-01-18T08:25:02.240Z,1.05
2018-01-18T08:26:04.700Z,1.07
2018-01-18T08:27:07.162Z,0.80
2018-01-18T08:28:09.624Z,0.80
2018-01-18T08:29:12.111Z,1.10
2018-01-18T08:30:14.565Z,0.90
2018-01-18T08:31:17.075Z,1.05
2018-01-18T08:32:19.551Z,1.08
2018-01-18T08:33:22.014Z,1.10
2018-01-18T08:34:24.496Z,1.10
2018-01-18T08:35:26.992Z,0.90
2018-01-18T08:36:29.414Z,0.70
2018-01-18T08:37:31.877Z,1.10
2018-01-18T08:38:34.352Z,1.23
2018-01-18T08:39:36.835Z,1.10
2018-01-18T08:40:39.289Z,1.03
2018-01-18T08:41:41.757Z,1.10
2018-01-18T08:42:44.224Z,1.30
2018-01-18T08:43:46.674Z,1.43
2018-01-18T08:44:49.155Z,1.47
2018-01-18T08:45:51.606Z,1.40
2018-01-18T08:46:54.063Z,1.30
2018-01-18T08:47:56.514Z,1.30
2018-01-18T08:48:58.986Z,1.77
2018-01-18T08:50:01.462Z,1.43
2018-01-18T08:51:03.936Z,1.40
2018-01-18T08:52:06.411Z,1.40
2018-01-18T08:53:08.875Z,1.70
2018-01-18T08:54:11.326Z,1.60
2018-01-18T08:55:13.822Z,1.40
2018-01-18T08:56:16.296Z,1.50
2018-01-18T08:57:18.778Z,1.62
2018-01-18T08:58:21.234Z,1.77
2018-01-18T08:59:23.686Z,1.63
2018-01-18T09:00:26.197Z,2.23
2018-01-18T09:01:28.664Z,1.93
2018-01-18T09:02:31.133Z,1.90
2018-01-18T09:03:33.586Z,1.70
2018-01-18T09:04:36.046Z,2.15
2018-01-18T09:05:38.538Z,2.00
2018-01-18T09:06:40.993Z,2.07
2018-01-18T09:07:43.476Z,2.00
2018-01-18T09:08:45.933Z,2.37
2018-01-18T09:09:48.386Z,2.20
2018-01-18T09:10:50.878Z,1.90
2018-01-18T09:11:53.348Z,2.10
2018-01-18T09:12:55.830Z,2.23
2018-01-18T09:13:58.286Z,1.80
2018-01-18T09:15:01.120Z,2.40
2018-01-18T09:16:03.621Z,2.20
2018-01-18T09:17:06.092Z,2.23
2018-01-18T09:18:08.546Z,2.33
2018-01-18T09:19:11.010Z,2.60
2018-01-18T09:20:13.476Z,2.23
2018-01-18T09:21:15.962Z,2.00
2018-01-18T09:22:18.418Z,2.00
2018-01-18T09:23:20.873Z,3.10
2018-01-18T09:24:23.325Z,2.07
2018-01-18T09:25:25.778Z,2.17
2018-01-18T09:26:28.250Z,2.17
2018-01-18T09:27:30.712Z,2.40
2018-01-18T09:28:33.167Z,1.80
2018-01-18T09:29:35.622Z,2.50
2018-01-18T09:30:38.081Z,2.20
2018-01-18T09:31:40.562Z,2.60
2018-01-18T09:32:43.014Z,2.00
2018-01-18T09:33:45.480Z,2.37
2018-01-18T09:34:47.938Z,2.23
2018-01-18T09:35:50.403Z,1.73
2018-01-18T09:36:52.883Z,3.03
2018-01-18T09:37:55.338Z,2.20
2018-01-18T09:38:57.809Z,2.63
2018-01-18T09:40:00.284Z,1.90
2018-01-18T09:41:02.738Z,2.40
2018-01-18T09:42:05.248Z,2.83
2018-01-18T09:43:07.702Z,2.30
2018-01-18T09:44:10.183Z,2.87
2018-01-18T09:45:12.708Z,2.70
2018-01-18T09:46:15.168Z,3.00
2018-01-18T09:47:17.655Z,3.17
2018-01-18T09:48:20.214Z,2.70
2018-01-18T09:49:22.666Z,2.67
2018-01-18T09:50:25.195Z,2.40
2018-01-18T09:51:27.680Z,3.73
2018-01-18T09:52:30.166Z,2.47
2018-01-18T09:53:32.640Z,2.73
2018-01-18T09:54:35.330Z,3.43
2018-01-18T09:55:37.812Z,2.77
2018-01-18T09:56:40.347Z,2.70
2018-01-18T09:57:42.830Z,2.40
2018-01-18T09:58:46.042Z,2.80
2018-01-18T09:59:48.644Z,2.37
2018-01-18T10:00:51.110Z,2.40
2018-01-18T10:01:53.576Z,2.40
2018-01-18T10:02:56.054Z,3.10
2018-01-18T10:03:58.515Z,2.40
2018-01-18T10:05:00.984Z,3.03
2018-01-18T10:06:03.548Z,3.13
2018-01-18T10:07:06.006Z,3.30
2018-01-18T10:08:08.486Z,3.13
2018-01-18T10:09:10.970Z,4.10
2018-01-18T10:10:13.431Z,2.97
2018-01-18T10:11:15.889Z,4.10
2018-01-18T10:12:18.342Z,3.40
2018-01-18T10:13:20.827Z,3.57
2018-01-18T10:14:23.285Z,3.97
2018-01-18T10:15:25.763Z,4.60
2018-01-18T10:16:28.217Z,5.87
2018-01-18T10:17:30.690Z,3.70
2018-01-18T10:18:33.165Z,4.60
2018-01-18T10:19:35.636Z,5.63
2018-01-18T10:20:38.107Z,4.80
2018-01-18T10:21:40.562Z,4.23
2018-01-18T10:22:43.036Z,4.90
2018-01-18T10:23:45.517Z,4.60
2018-01-18T10:24:47.990Z,5.13
2018-01-18T10:25:50.470Z,4.20
2018-01-18T10:26:52.939Z,4.63
2018-01-18T10:27:55.393Z,4.37
2018-01-18T10:28:57.878Z,4.40
2018-01-18T10:30:00.342Z,5.87
2018-01-18T10:31:02.797Z,6.40
2018-01-18T10:32:05.268Z,6.03
2018-01-18T10:33:07.726Z,5.73
2018-01-18T10:34:10.206Z,6.83
2018-01-18T10:35:12.666Z,6.40
2018-01-18T10:36:15.144Z,6.80
2018-01-18T10:37:17.602Z,5.57
2018-01-18T10:38:20.074Z,6.07
2018-01-18T10:39:22.582Z,5.90
2018-01-18T10:40:25.043Z,6.10
2018-01-18T10:41:27.511Z,6.77
2018-01-18T10:42:29.982Z,6.10
2018-01-18T10:43:32.447Z,5.73
2018-01-18T10:44:34.945Z,6.20
2018-01-18T10:45:37.440Z,5.53
2018-01-18T10:46:39.915Z,6.53
2018-01-18T10:47:42.389Z,5.83
2018-01-18T10:48:44.862Z,5.50
2018-01-18T10:49:47.495Z,5.03
2018-01-18T10:50:49.980Z,5.70
2018-01-18T10:51:52.433Z,5.90
2018-01-18T10:52:54.908Z,5.63
2018-01-18T10:53:57.396Z,5.03
2018-01-18T10:54:59.888Z,5.70
2018-01-18T10:56:02.368Z,5.57
2018-01-18T10:57:04.829Z,5.40
2018-01-18T10:58:07.282Z,5.03
2018-01-18T10:59:09.737Z,5.17
2018-01-18T11:00:12.254Z,5.33
2018-01-18T11:01:14.702Z,5.40
2018-01-18T11:02:17.158Z,6.00
2018-01-18T11:03:19.628Z,5.40
2018-01-18T11:04:22.082Z,5.40
2018-01-18T11:05:24.576Z,5.37
2018-01-18T11:06:27.169Z,5.43
2018-01-18T11:07:29.538Z,4.70
2018-01-18T11:08:32.014Z,5.23
2018-01-18T11:09:34.507Z,5.33
2018-01-18T11:10:36.986Z,5.10
2018-01-18T11:11:39.452Z,5.20
2018-01-18T11:12:41.906Z,4.80
2018-01-18T11:13:44.358Z,5.00
2018-01-18T11:14:46.837Z,4.90
2018-01-18T11:15:49.332Z,4.70
2018-01-18T11:16:51.789Z,5.30
2018-01-18T11:17:54.260Z,4.60
2018-01-18T11:18:56.736Z,5.20
2018-01-18T11:19:59.203Z,4.60
2018-01-18T11:21:01.682Z,4.70
2018-01-18T11:22:04.141Z,4.77
2018-01-18T11:23:06.594Z,3.87
2018-01-18T11:24:09.053Z,4.03
2018-01-18T11:25:11.528Z,4.60
2018-01-18T11:26:14.001Z,4.13
2018-01-18T11:27:16.453Z,3.60
2018-01-18T11:28:19.046Z,4.67
2018-01-18T11:29:22.811Z,4.30
2018-01-18T11:30:25.276Z,4.10
2018-01-18T11:31:27.763Z,4.50
2018-01-18T11:32:30.213Z,3.50
2018-01-18T11:33:32.666Z,3.90
2018-01-18T11:34:35.136Z,3.90
2018-01-18T11:35:37.618Z,3.80
2018-01-18T11:36:40.090Z,4.20
2018-01-18T11:37:42.560Z,4.10
2018-01-18T11:38:45.011Z,3.20
2018-01-18T11:39:47.481Z,3.83
2018-01-18T11:40:49.948Z,3.73
2018-01-18T11:41:52.443Z,3.77
2018-01-18T11:42:54.898Z,3.67
2018-01-18T11:43:57.354Z,3.53
2018-01-18T11:44:59.816Z,3.77
2018-01-18T11:46:02.288Z,4.20
2018-01-18T11:47:04.762Z,3.10
2018-01-18T11:48:07.218Z,4.00
2018-01-18T11:49:09.688Z,3.50
2018-01-18T11:50:12.138Z,2.70
2018-01-18T11:51:14.594Z,3.10
2018-01-18T11:52:17.074Z,3.07
2018-01-18T11:53:19.529Z,3.00
2018-01-18T11:54:22.060Z,2.90
2018-01-18T11:55:24.519Z,2.63
2018-01-18T11:56:26.988Z,3.27
2018-01-18T11:57:29.476Z,3.03
2018-01-18T11:58:31.945Z,3.43
2018-01-18T11:59:34.416Z,3.67
2018-01-18T12:00:36.900Z,3.27
2018-01-18T12:01:39.372Z,3.60
2018-01-18T12:02:41.853Z,2.73
2018-01-18T12:03:44.316Z,3.37
2018-01-18T12:04:46.782Z,4.00
2018-01-18T12:05:49.263Z,7.80
2018-01-18T12:06:51.736Z,7.87
2018-01-18T12:07:54.234Z,10.00
2018-01-18T12:08:56.740Z,12.40
2018-01-18T12:09:59.219Z,11.43
2018-01-18T12:11:01.677Z,11.10
2018-01-18T12:12:04.172Z,10.17
2018-01-18T12:13:06.650Z,9.60
2018-01-18T12:14:09.140Z,9.57
2018-01-18T12:15:11.602Z,9.00
2018-01-18T12:16:14.059Z,9.40
2018-01-18T12:17:16.540Z,8.50
2018-01-18T12:18:19.034Z,7.93
2018-01-18T12:19:21.492Z,8.10
2018-01-18T12:20:23.967Z,7.90
2018-01-18T12:21:26.422Z,7.90
2018-01-18T12:22:28.874Z,7.93
2018-01-18T12:23:31.368Z,7.70
2018-01-18T12:24:33.826Z,7.80
2018-01-18T12:25:36.296Z,7.80
2018-01-18T12:26:38.758Z,7.97
2018-01-18T12:27:41.248Z,7.87
2018-01-18T12:28:43.740Z,6.63
2018-01-18T12:29:46.194Z,6.97
2018-01-18T12:30:48.674Z,7.80
2018-01-18T12:31:51.151Z,7.60
2018-01-18T12:32:53.632Z,7.83
2018-01-18T12:33:56.110Z,7.60
2018-01-18T12:34:58.588Z,6.80
2018-01-18T12:36:01.059Z,7.90
2018-01-18T12:37:03.614Z,6.97
2018-01-18T12:38:06.095Z,6.53
2018-01-18T12:39:08.574Z,8.23
2018-01-18T12:40:11.076Z,6.30
2018-01-18T12:41:13.576Z,6.47
2018-01-18T12:42:16.093Z,6.80
2018-01-18T12:43:18.554Z,6.50
2018-01-18T12:44:21.045Z,6.70
2018-01-18T12:45:23.502Z,5.73
2018-01-18T12:46:25.962Z,6.33
2018-01-18T12:47:28.428Z,6.50
2018-01-18T12:48:30.900Z,5.90
2018-01-18T12:49:33.392Z,6.20
2018-01-18T12:50:35.850Z,6.87
2018-01-18T12:51:38.323Z,6.00
2018-01-18T12:52:40.778Z,7.13
2018-01-18T12:53:43.276Z,5.37
2018-01-18T12:54:45.763Z,6.03
2018-01-18T12:55:48.227Z,6.40
2018-01-18T12:56:50.683Z,6.30
2018-01-18T12:57:53.147Z,6.00
2018-01-18T12:58:55.603Z,5.53
2018-01-18T12:59:58.101Z,6.10
2018-01-18T13:01:00.572Z,6.00
2018-01-18T13:02:03.049Z,6.60
2018-01-18T13:03:05.514Z,5.57
2018-01-18T13:04:07.970Z,6.40
2018-01-18T13:05:10.455Z,5.20
2018-01-18T13:06:12.910Z,5.60
2018-01-18T13:07:15.384Z,5.40
2018-01-18T13:08:17.861Z,5.30
2018-01-18T13:09:20.350Z,5.43
2018-01-18T13:10:22.842Z,5.83
2018-01-18T13:11:25.317Z,5.03
2018-01-18T13:12:27.778Z,5.07
2018-01-18T13:13:30.239Z,5.40
2018-01-18T13:14:32.698Z,6.70
2018-01-18T13:15:35.338Z,5.30
2018-01-18T13:16:37.816Z,5.30
2018-01-18T13:17:40.274Z,5.60
2018-01-18T13:18:42.735Z,6.10
2018-01-18T13:19:45.208Z,4.93
2018-01-18T13:20:47.682Z,5.23
2018-01-18T13:21:50.140Z,4.70
2018-01-18T13:22:52.606Z,4.90
2018-01-18T13:23:55.076Z,4.40
2018-01-18T13:24:57.534Z,4.80
2018-01-18T13:26:00.138Z,3.90
2018-01-18T13:27:02.613Z,5.10
2018-01-18T13:28:05.079Z,5.57
2018-01-18T13:29:07.538Z,4.10
2018-01-18T13:30:10.002Z,4.90
2018-01-18T13:31:12.767Z,4.73
2018-01-18T13:32:15.333Z,4.13
2018-01-18T13:33:17.812Z,4.50
2018-01-18T13:34:20.289Z,4.47
2018-01-18T13:35:22.764Z,4.20
2018-01-18T13:36:25.247Z,4.70
2018-01-18T13:37:27.721Z,3.97
2018-01-18T13:38:30.197Z,4.97
2018-01-18T13:39:32.666Z,4.70
2018-01-18T13:40:35.122Z,4.30
2018-01-18T13:41:37.590Z,4.50
2018-01-18T13:42:40.051Z,4.30
2018-01-18T13:43:42.515Z,4.73
2018-01-18T13:44:44.998Z,4.80
2018-01-18T13:45:47.489Z,4.80
2018-01-18T13:46:49.974Z,4.43
2018-01-18T13:47:52.451Z,4.90
2018-01-18T13:48:54.907Z,4.20
2018-01-18T13:49:57.377Z,4.40
2018-01-18T13:50:59.849Z,4.87
2018-01-18T13:52:02.362Z,4.07